sensor_id;sensor_type;location;lat;lon;timestamp;P1;durP1;ratioP1;P2;durP2;ratioP2
16979;SDS011;42288;52.182;21.156;2024-02-26T00:01:41;39.50;;;15.30;;
16979;SDS011;42288;52.182;21.156;2024-02-26T00:04:08;32.43;;;15.10;;
16979;SDS011;42288;52.182;21.156;2024-02-26T00:06:35;33.70;;;14.77;;
16979;SDS011;42288;52.182;21.156;2024-02-26T00:09:00;28.47;;;13.53;;
16979;SDS011;42288;52.182;21.156;2024-02-26T00:11:27;29.53;;;14.03;;
16979;SDS011;42288;52.182;21.156;2024-02-26T00:13:53;26.13;;;13.27;;
16979;SDS011;42288;52.182;21.156;2024-02-26T00:16:19;32.17;;;15.00;;
16979;SDS011;42288;52.182;21.156;2024-02-26T00:18:44;29.30;;;15.33;;
16979;SDS011;42288;52.182;21.156;2024-02-26T00:21:11;34.90;;;15.40;;
16979;SDS011;42288;52.182;21.156;2024-02-26T00:23:37;38.93;;;15.67;;
16979;SDS011;42288;52.182;21.156;2024-02-26T00:26:02;27.30;;;14.03;;
16979;SDS011;42288;52.182;21.156;2024-02-26T00:28:28;37.50;;;14.93;;
16979;SDS011;42288;52.182;21.156;2024-02-26T00:30:54;30.00;;;14.43;;
16979;SDS011;42288;52.182;21.156;2024-02-26T00:33:21;31.83;;;14.93;;
16979;SDS011;42288;52.182;21.156;2024-02-26T00:35:47;32.97;;;13.77;;
16979;SDS011;42288;52.182;21.156;2024-02-26T00:38:14;28.13;;;13.63;;
16979;SDS011;42288;52.182;21.156;2024-02-26T00:40:39;31.67;;;13.80;;
16979;SDS011;42288;52.182;21.156;2024-02-26T00:43:08;33.07;;;13.87;;
16979;SDS011;42288;52.182;21.156;2024-02-26T00:45:33;31.07;;;14.03;;
16979;SDS011;42288;52.182;21.156;2024-02-26T00:47:59;32.90;;;14.70;;
16979;SDS011;42288;52.182;21.156;2024-02-26T00:50:33;36.67;;;15.70;;
16979;SDS011;42288;52.182;21.156;2024-02-26T00:52:59;30.07;;;14.20;;
16979;SDS011;42288;52.182;21.156;2024-02-26T00:55:25;34.23;;;14.33;;
16979;SDS011;42288;52.182;21.156;2024-02-26T00:57:51;33.23;;;14.30;;
16979;SDS011;42288;52.182;21.156;2024-02-26T01:00:17;31.10;;;13.80;;
16979;SDS011;42288;52.182;21.156;2024-02-26T01:02:43;33.20;;;14.13;;
16979;SDS011;42288;52.182;21.156;2024-02-26T01:05:11;30.93;;;14.80;;
16979;SDS011;42288;52.182;21.156;2024-02-26T01:07:37;32.43;;;14.97;;
16979;SDS011;42288;52.182;21.156;2024-02-26T01:10:04;37.20;;;15.40;;
16979;SDS011;42288;52.182;21.156;2024-02-26T01:12:31;29.77;;;14.50;;
16979;SDS011;42288;52.182;21.156;2024-02-26T01:14:59;32.07;;;14.17;;
16979;SDS011;42288;52.182;21.156;2024-02-26T01:17:28;32.37;;;14.37;;
16979;SDS011;42288;52.182;21.156;2024-02-26T01:19:54;34.17;;;13.73;;
16979;SDS011;42288;52.182;21.156;2024-02-26T01:22:20;28.33;;;13.33;;
16979;SDS011;42288;52.182;21.156;2024-02-26T01:24:45;22.93;;;12.70;;
16979;SDS011;42288;52.182;21.156;2024-02-26T01:27:11;30.83;;;14.53;;
16979;SDS011;42288;52.182;21.156;2024-02-26T01:29:39;26.13;;;11.50;;
16979;SDS011;42288;52.182;21.156;2024-02-26T01:32:05;33.97;;;14.00;;
16979;SDS011;42288;52.182;21.156;2024-02-26T01:34:31;27.63;;;13.30;;
16979;SDS011;42288;52.182;21.156;2024-02-26T01:36:56;33.00;;;14.23;;
16979;SDS011;42288;52.182;21.156;2024-02-26T01:39:22;32.30;;;14.20;;
16979;SDS011;42288;52.182;21.156;2024-02-26T01:41:48;27.63;;;13.17;;
16979;SDS011;42288;52.182;21.156;2024-02-26T01:44:13;33.00;;;14.30;;
16979;SDS011;42288;52.182;21.156;2024-02-26T01:46:39;29.80;;;15.13;;
16979;SDS011;42288;52.182;21.156;2024-02-26T01:49:05;32.07;;;13.60;;
16979;SDS011;42288;52.182;21.156;2024-02-26T01:51:32;35.17;;;16.00;;
16979;SDS011;42288;52.182;21.156;2024-02-26T01:53:59;36.70;;;15.77;;
16979;SDS011;42288;52.182;21.156;2024-02-26T01:56:27;32.10;;;15.00;;
16979;SDS011;42288;52.182;21.156;2024-02-26T01:58:55;30.87;;;14.60;;
16979;SDS011;42288;52.182;21.156;2024-02-26T02:01:22;33.07;;;15.17;;
16979;SDS011;42288;52.182;21.156;2024-02-26T02:03:51;31.03;;;14.07;;
16979;SDS011;42288;52.182;21.156;2024-02-26T02:06:17;32.67;;;14.23;;
16979;SDS011;42288;52.182;21.156;2024-02-26T02:08:44;25.90;;;13.73;;
16979;SDS011;42288;52.182;21.156;2024-02-26T02:11:10;31.40;;;13.90;;
16979;SDS011;42288;52.182;21.156;2024-02-26T02:13:36;36.03;;;14.60;;
16979;SDS011;42288;52.182;21.156;2024-02-26T02:16:03;28.17;;;13.80;;
16979;SDS011;42288;52.182;21.156;2024-02-26T02:18:29;30.00;;;13.47;;
16979;SDS011;42288;52.182;21.156;2024-02-26T02:20:54;30.83;;;14.90;;
16979;SDS011;42288;52.182;21.156;2024-02-26T02:23:21;39.47;;;16.07;;
16979;SDS011;42288;52.182;21.156;2024-02-26T02:25:47;30.10;;;15.17;;
16979;SDS011;42288;52.182;21.156;2024-02-26T02:28:13;29.87;;;14.43;;
16979;SDS011;42288;52.182;21.156;2024-02-26T02:30:39;30.97;;;13.10;;
16979;SDS011;42288;52.182;21.156;2024-02-26T02:33:05;32.10;;;15.13;;
16979;SDS011;42288;52.182;21.156;2024-02-26T02:35:31;30.97;;;13.77;;
16979;SDS011;42288;52.182;21.156;2024-02-26T02:37:57;31.90;;;14.30;;
16979;SDS011;42288;52.182;21.156;2024-02-26T02:40:22;32.50;;;13.87;;
16979;SDS011;42288;52.182;21.156;2024-02-26T02:42:48;30.70;;;14.43;;
16979;SDS011;42288;52.182;21.156;2024-02-26T02:45:13;36.20;;;14.03;;
16979;SDS011;42288;52.182;21.156;2024-02-26T02:47:39;30.83;;;13.63;;
16979;SDS011;42288;52.182;21.156;2024-02-26T02:50:05;33.30;;;14.13;;
16979;SDS011;42288;52.182;21.156;2024-02-26T02:52:31;31.67;;;14.80;;
16979;SDS011;42288;52.182;21.156;2024-02-26T02:54:57;30.63;;;15.17;;
16979;SDS011;42288;52.182;21.156;2024-02-26T02:57:23;27.10;;;13.47;;
16979;SDS011;42288;52.182;21.156;2024-02-26T02:59:48;28.03;;;13.90;;
16979;SDS011;42288;52.182;21.156;2024-02-26T03:02:14;31.10;;;13.73;;
16979;SDS011;42288;52.182;21.156;2024-02-26T03:04:40;30.00;;;14.53;;
16979;SDS011;42288;52.182;21.156;2024-02-26T03:07:05;33.63;;;15.50;;
16979;SDS011;42288;52.182;21.156;2024-02-26T03:09:31;33.63;;;13.97;;
16979;SDS011;42288;52.182;21.156;2024-02-26T03:11:57;31.60;;;15.17;;
16979;SDS011;42288;52.182;21.156;2024-02-26T03:14:22;33.77;;;14.57;;
16979;SDS011;42288;52.182;21.156;2024-02-26T03:16:48;34.63;;;14.70;;
16979;SDS011;42288;52.182;21.156;2024-02-26T03:19:14;33.30;;;14.37;;
16979;SDS011;42288;52.182;21.156;2024-02-26T03:21:41;30.93;;;13.00;;
16979;SDS011;42288;52.182;21.156;2024-02-26T03:24:07;34.03;;;14.70;;
16979;SDS011;42288;52.182;21.156;2024-02-26T03:26:35;28.53;;;14.37;;
16979;SDS011;42288;52.182;21.156;2024-02-26T03:29:01;29.83;;;13.70;;
16979;SDS011;42288;52.182;21.156;2024-02-26T03:31:28;30.50;;;14.70;;
16979;SDS011;42288;52.182;21.156;2024-02-26T03:33:53;30.07;;;14.80;;
16979;SDS011;42288;52.182;21.156;2024-02-26T03:36:19;27.07;;;12.70;;
16979;SDS011;42288;52.182;21.156;2024-02-26T03:38:46;30.63;;;13.60;;
16979;SDS011;42288;52.182;21.156;2024-02-26T03:41:12;27.87;;;12.97;;
16979;SDS011;42288;52.182;21.156;2024-02-26T03:43:38;32.77;;;14.37;;
16979;SDS011;42288;52.182;21.156;2024-02-26T03:46:03;30.37;;;14.30;;
16979;SDS011;42288;52.182;21.156;2024-02-26T03:48:32;34.07;;;14.23;;
16979;SDS011;42288;52.182;21.156;2024-02-26T03:50:57;32.00;;;14.87;;
16979;SDS011;42288;52.182;21.156;2024-02-26T03:53:23;34.07;;;13.97;;
16979;SDS011;42288;52.182;21.156;2024-02-26T03:55:48;31.70;;;13.27;;
16979;SDS011;42288;52.182;21.156;2024-02-26T03:58:17;30.63;;;14.03;;
16979;SDS011;42288;52.182;21.156;2024-02-26T04:00:42;32.37;;;13.37;;
16979;SDS011;42288;52.182;21.156;2024-02-26T04:03:08;35.83;;;14.27;;
16979;SDS011;42288;52.182;21.156;2024-02-26T04:05:33;29.80;;;13.23;;
16979;SDS011;42288;52.182;21.156;2024-02-26T04:07:59;24.47;;;12.83;;
16979;SDS011;42288;52.182;21.156;2024-02-26T04:10:25;32.30;;;13.67;;
16979;SDS011;42288;52.182;21.156;2024-02-26T04:12:50;28.83;;;12.67;;
16979;SDS011;42288;52.182;21.156;2024-02-26T04:15:16;30.03;;;12.70;;
16979;SDS011;42288;52.182;21.156;2024-02-26T04:17:42;33.93;;;14.13;;
16979;SDS011;42288;52.182;21.156;2024-02-26T04:20:12;23.63;;;12.13;;
16979;SDS011;42288;52.182;21.156;2024-02-26T04:22:39;29.50;;;13.10;;
16979;SDS011;42288;52.182;21.156;2024-02-26T04:25:04;30.57;;;13.43;;
16979;SDS011;42288;52.182;21.156;2024-02-26T04:27:30;30.93;;;14.03;;
16979;SDS011;42288;52.182;21.156;2024-02-26T04:29:56;36.80;;;15.07;;
16979;SDS011;42288;52.182;21.156;2024-02-26T04:32:21;34.43;;;14.33;;
16979;SDS011;42288;52.182;21.156;2024-02-26T04:34:47;27.37;;;13.40;;
16979;SDS011;42288;52.182;21.156;2024-02-26T04:37:13;28.67;;;13.47;;
16979;SDS011;42288;52.182;21.156;2024-02-26T04:39:38;32.00;;;13.73;;
16979;SDS011;42288;52.182;21.156;2024-02-26T04:42:04;34.07;;;13.50;;
16979;SDS011;42288;52.182;21.156;2024-02-26T04:44:29;32.23;;;14.37;;
16979;SDS011;42288;52.182;21.156;2024-02-26T04:46:55;30.30;;;13.20;;
16979;SDS011;42288;52.182;21.156;2024-02-26T04:49:21;30.17;;;14.40;;
16979;SDS011;42288;52.182;21.156;2024-02-26T04:51:47;38.87;;;13.70;;
16979;SDS011;42288;52.182;21.156;2024-02-26T04:54:13;34.47;;;14.23;;
16979;SDS011;42288;52.182;21.156;2024-02-26T04:56:39;31.27;;;14.37;;
16979;SDS011;42288;52.182;21.156;2024-02-26T04:59:04;34.43;;;13.10;;
16979;SDS011;42288;52.182;21.156;2024-02-26T05:01:30;25.60;;;13.53;;
16979;SDS011;42288;52.182;21.156;2024-02-26T05:03:56;28.67;;;13.27;;
16979;SDS011;42288;52.182;21.156;2024-02-26T05:06:21;27.97;;;12.83;;
16979;SDS011;42288;52.182;21.156;2024-02-26T05:08:47;29.97;;;12.93;;
16979;SDS011;42288;52.182;21.156;2024-02-26T05:11:12;26.27;;;12.07;;
16979;SDS011;42288;52.182;21.156;2024-02-26T05:13:38;31.37;;;12.13;;
16979;SDS011;42288;52.182;21.156;2024-02-26T05:16:04;28.20;;;13.20;;
16979;SDS011;42288;52.182;21.156;2024-02-26T05:18:30;27.60;;;12.57;;
16979;SDS011;42288;52.182;21.156;2024-02-26T05:20:55;31.57;;;12.63;;
16979;SDS011;42288;52.182;21.156;2024-02-26T05:23:21;30.90;;;13.23;;
16979;SDS011;42288;52.182;21.156;2024-02-26T05:25:46;35.17;;;14.03;;
16979;SDS011;42288;52.182;21.156;2024-02-26T05:28:13;32.57;;;14.87;;
16979;SDS011;42288;52.182;21.156;2024-02-26T05:30:40;28.37;;;13.60;;
16979;SDS011;42288;52.182;21.156;2024-02-26T05:33:07;38.60;;;15.03;;
16979;SDS011;42288;52.182;21.156;2024-02-26T05:35:32;33.30;;;14.87;;
16979;SDS011;42288;52.182;21.156;2024-02-26T05:37:58;34.63;;;15.17;;
16979;SDS011;42288;52.182;21.156;2024-02-26T05:40:24;34.87;;;15.07;;
16979;SDS011;42288;52.182;21.156;2024-02-26T05:42:49;34.77;;;12.60;;
16979;SDS011;42288;52.182;21.156;2024-02-26T05:45:15;37.23;;;15.00;;
16979;SDS011;42288;52.182;21.156;2024-02-26T05:47:41;30.13;;;13.57;;
16979;SDS011;42288;52.182;21.156;2024-02-26T05:50:09;29.30;;;14.37;;
16979;SDS011;42288;52.182;21.156;2024-02-26T05:52:36;32.90;;;13.97;;
16979;SDS011;42288;52.182;21.156;2024-02-26T05:55:03;33.50;;;14.13;;
16979;SDS011;42288;52.182;21.156;2024-02-26T05:57:29;28.03;;;13.30;;
16979;SDS011;42288;52.182;21.156;2024-02-26T05:59:55;31.07;;;12.83;;
16979;SDS011;42288;52.182;21.156;2024-02-26T06:02:21;24.23;;;12.00;;
16979;SDS011;42288;52.182;21.156;2024-02-26T06:04:47;29.70;;;12.97;;
16979;SDS011;42288;52.182;21.156;2024-02-26T06:07:12;26.43;;;12.27;;
16979;SDS011;42288;52.182;21.156;2024-02-26T06:09:38;31.57;;;12.80;;
16979;SDS011;42288;52.182;21.156;2024-02-26T06:12:04;30.10;;;12.80;;
16979;SDS011;42288;52.182;21.156;2024-02-26T06:14:30;26.93;;;12.23;;
16979;SDS011;42288;52.182;21.156;2024-02-26T06:16:56;31.40;;;14.00;;
16979;SDS011;42288;52.182;21.156;2024-02-26T06:19:21;27.50;;;13.20;;
16979;SDS011;42288;52.182;21.156;2024-02-26T06:21:47;26.70;;;13.37;;
16979;SDS011;42288;52.182;21.156;2024-02-26T06:24:12;29.80;;;11.93;;
16979;SDS011;42288;52.182;21.156;2024-02-26T06:26:38;27.17;;;12.50;;
16979;SDS011;42288;52.182;21.156;2024-02-26T06:29:03;30.17;;;12.83;;
16979;SDS011;42288;52.182;21.156;2024-02-26T06:31:29;30.50;;;13.50;;
16979;SDS011;42288;52.182;21.156;2024-02-26T06:33:55;26.53;;;13.37;;
16979;SDS011;42288;52.182;21.156;2024-02-26T06:36:21;24.57;;;11.40;;
16979;SDS011;42288;52.182;21.156;2024-02-26T06:38:47;24.80;;;12.60;;
16979;SDS011;42288;52.182;21.156;2024-02-26T06:41:14;29.33;;;13.37;;
16979;SDS011;42288;52.182;21.156;2024-02-26T06:43:39;27.80;;;14.43;;
16979;SDS011;42288;52.182;21.156;2024-02-26T06:46:05;39.47;;;13.60;;
16979;SDS011;42288;52.182;21.156;2024-02-26T06:48:31;28.87;;;14.00;;
16979;SDS011;42288;52.182;21.156;2024-02-26T06:50:57;30.77;;;13.13;;
16979;SDS011;42288;52.182;21.156;2024-02-26T06:53:22;34.03;;;15.27;;
16979;SDS011;42288;52.182;21.156;2024-02-26T06:55:48;37.43;;;15.30;;
16979;SDS011;42288;52.182;21.156;2024-02-26T06:58:15;57.10;;;25.03;;
16979;SDS011;42288;52.182;21.156;2024-02-26T07:00:41;86.87;;;30.20;;
16979;SDS011;42288;52.182;21.156;2024-02-26T07:03:06;101.97;;;38.33;;
16979;SDS011;42288;52.182;21.156;2024-02-26T07:05:32;83.93;;;31.70;;
16979;SDS011;42288;52.182;21.156;2024-02-26T07:07:57;69.77;;;30.33;;
16979;SDS011;42288;52.182;21.156;2024-02-26T07:10:23;53.63;;;23.77;;
16979;SDS011;42288;52.182;21.156;2024-02-26T07:12:48;48.60;;;23.30;;
16979;SDS011;42288;52.182;21.156;2024-02-26T07:15:14;64.37;;;26.80;;
16979;SDS011;42288;52.182;21.156;2024-02-26T07:17:40;46.30;;;20.63;;
16979;SDS011;42288;52.182;21.156;2024-02-26T07:20:12;41.17;;;19.80;;
16979;SDS011;42288;52.182;21.156;2024-02-26T07:22:39;36.60;;;18.47;;
16979;SDS011;42288;52.182;21.156;2024-02-26T07:25:04;35.67;;;16.40;;
16979;SDS011;42288;52.182;21.156;2024-02-26T07:27:32;33.17;;;17.30;;
16979;SDS011;42288;52.182;21.156;2024-02-26T07:29:58;32.73;;;15.47;;
16979;SDS011;42288;52.182;21.156;2024-02-26T07:32:24;40.07;;;16.43;;
16979;SDS011;42288;52.182;21.156;2024-02-26T07:34:49;30.70;;;16.27;;
16979;SDS011;42288;52.182;21.156;2024-02-26T07:37:15;37.23;;;17.57;;
16979;SDS011;42288;52.182;21.156;2024-02-26T07:39:40;38.10;;;16.93;;
16979;SDS011;42288;52.182;21.156;2024-02-26T07:42:06;29.10;;;15.43;;
16979;SDS011;42288;52.182;21.156;2024-02-26T07:44:32;34.10;;;15.57;;
16979;SDS011;42288;52.182;21.156;2024-02-26T07:46:58;34.63;;;15.60;;
16979;SDS011;42288;52.182;21.156;2024-02-26T07:49:24;33.33;;;16.13;;
16979;SDS011;42288;52.182;21.156;2024-02-26T07:51:50;31.00;;;15.20;;
16979;SDS011;42288;52.182;21.156;2024-02-26T07:54:15;30.70;;;14.83;;
16979;SDS011;42288;52.182;21.156;2024-02-26T07:56:41;36.30;;;15.57;;
16979;SDS011;42288;52.182;21.156;2024-02-26T07:59:07;34.17;;;15.83;;
16979;SDS011;42288;52.182;21.156;2024-02-26T08:01:32;26.67;;;14.67;;
16979;SDS011;42288;52.182;21.156;2024-02-26T08:03:59;27.30;;;14.23;;
16979;SDS011;42288;52.182;21.156;2024-02-26T08:06:25;30.57;;;15.57;;
16979;SDS011;42288;52.182;21.156;2024-02-26T08:08:50;24.83;;;13.03;;
16979;SDS011;42288;52.182;21.156;2024-02-26T08:11:16;29.17;;;14.40;;
16979;SDS011;42288;52.182;21.156;2024-02-26T08:13:42;27.47;;;15.40;;
16979;SDS011;42288;52.182;21.156;2024-02-26T08:16:07;27.37;;;14.73;;
16979;SDS011;42288;52.182;21.156;2024-02-26T08:18:33;27.10;;;13.33;;
16979;SDS011;42288;52.182;21.156;2024-02-26T08:20:59;32.13;;;15.40;;
16979;SDS011;42288;52.182;21.156;2024-02-26T08:23:24;28.80;;;14.90;;
16979;SDS011;42288;52.182;21.156;2024-02-26T08:25:51;28.90;;;14.30;;
16979;SDS011;42288;52.182;21.156;2024-02-26T08:28:16;27.47;;;14.77;;
16979;SDS011;42288;52.182;21.156;2024-02-26T08:30:43;24.70;;;14.90;;
16979;SDS011;42288;52.182;21.156;2024-02-26T08:33:09;27.27;;;14.97;;
16979;SDS011;42288;52.182;21.156;2024-02-26T08:35:35;28.67;;;13.83;;
16979;SDS011;42288;52.182;21.156;2024-02-26T08:38:01;22.57;;;12.90;;
16979;SDS011;42288;52.182;21.156;2024-02-26T08:40:27;24.60;;;14.20;;
16979;SDS011;42288;52.182;21.156;2024-02-26T08:42:53;22.80;;;14.20;;
16979;SDS011;42288;52.182;21.156;2024-02-26T08:45:19;22.97;;;13.97;;
16979;SDS011;42288;52.182;21.156;2024-02-26T08:47:45;24.57;;;12.90;;
16979;SDS011;42288;52.182;21.156;2024-02-26T08:50:11;24.50;;;13.93;;
16979;SDS011;42288;52.182;21.156;2024-02-26T08:52:37;27.57;;;14.83;;
16979;SDS011;42288;52.182;21.156;2024-02-26T08:55:03;25.70;;;14.30;;
16979;SDS011;42288;52.182;21.156;2024-02-26T08:57:30;27.97;;;13.90;;
16979;SDS011;42288;52.182;21.156;2024-02-26T08:59:58;23.20;;;14.20;;
16979;SDS011;42288;52.182;21.156;2024-02-26T09:02:23;29.77;;;15.20;;
16979;SDS011;42288;52.182;21.156;2024-02-26T09:04:49;22.77;;;13.33;;
16979;SDS011;42288;52.182;21.156;2024-02-26T09:07:18;23.60;;;13.60;;
16979;SDS011;42288;52.182;21.156;2024-02-26T09:09:44;23.07;;;12.20;;
16979;SDS011;42288;52.182;21.156;2024-02-26T09:12:09;25.73;;;14.60;;
16979;SDS011;42288;52.182;21.156;2024-02-26T09:14:35;26.10;;;13.73;;
16979;SDS011;42288;52.182;21.156;2024-02-26T09:17:01;23.50;;;12.43;;
16979;SDS011;42288;52.182;21.156;2024-02-26T09:19:26;23.40;;;13.03;;
16979;SDS011;42288;52.182;21.156;2024-02-26T09:21:55;19.97;;;12.23;;
16979;SDS011;42288;52.182;21.156;2024-02-26T09:24:22;18.57;;;10.90;;
16979;SDS011;42288;52.182;21.156;2024-02-26T09:26:49;21.67;;;12.87;;
16979;SDS011;42288;52.182;21.156;2024-02-26T09:29:14;16.63;;;10.83;;
16979;SDS011;42288;52.182;21.156;2024-02-26T09:31:40;17.53;;;11.00;;
16979;SDS011;42288;52.182;21.156;2024-02-26T09:34:06;14.80;;;10.13;;
16979;SDS011;42288;52.182;21.156;2024-02-26T09:36:33;19.80;;;11.47;;
16979;SDS011;42288;52.182;21.156;2024-02-26T09:38:58;16.03;;;10.30;;
16979;SDS011;42288;52.182;21.156;2024-02-26T09:41:24;16.87;;;11.90;;
16979;SDS011;42288;52.182;21.156;2024-02-26T09:43:55;21.30;;;13.17;;
16979;SDS011;42288;52.182;21.156;2024-02-26T09:46:23;16.60;;;10.10;;
16979;SDS011;42288;52.182;21.156;2024-02-26T09:48:50;18.80;;;10.47;;
16979;SDS011;42288;52.182;21.156;2024-02-26T09:51:16;14.40;;;10.17;;
16979;SDS011;42288;52.182;21.156;2024-02-26T09:53:43;19.70;;;12.10;;
16979;SDS011;42288;52.182;21.156;2024-02-26T09:56:11;17.20;;;11.20;;
16979;SDS011;42288;52.182;21.156;2024-02-26T09:58:40;21.20;;;12.23;;
16979;SDS011;42288;52.182;21.156;2024-02-26T10:01:11;27.23;;;13.87;;
16979;SDS011;42288;52.182;21.156;2024-02-26T10:03:39;22.17;;;13.47;;
16979;SDS011;42288;52.182;21.156;2024-02-26T10:06:07;24.43;;;13.33;;
16979;SDS011;42288;52.182;21.156;2024-02-26T10:08:36;28.43;;;13.90;;
16979;SDS011;42288;52.182;21.156;2024-02-26T10:11:02;22.00;;;13.53;;
16979;SDS011;42288;52.182;21.156;2024-02-26T10:13:29;20.80;;;12.03;;
16979;SDS011;42288;52.182;21.156;2024-02-26T10:15:55;20.73;;;11.53;;
16979;SDS011;42288;52.182;21.156;2024-02-26T10:18:22;20.60;;;13.00;;
16979;SDS011;42288;52.182;21.156;2024-02-26T10:20:58;20.07;;;11.20;;
16979;SDS011;42288;52.182;21.156;2024-02-26T10:23:27;16.40;;;9.63;;
16979;SDS011;42288;52.182;21.156;2024-02-26T10:25:56;20.90;;;11.97;;
16979;SDS011;42288;52.182;21.156;2024-02-26T10:28:22;21.03;;;11.97;;
16979;SDS011;42288;52.182;21.156;2024-02-26T10:30:48;17.50;;;10.80;;
16979;SDS011;42288;52.182;21.156;2024-02-26T10:33:15;19.80;;;10.93;;
16979;SDS011;42288;52.182;21.156;2024-02-26T10:35:47;14.93;;;9.43;;
16979;SDS011;42288;52.182;21.156;2024-02-26T10:38:13;21.70;;;10.27;;
16979;SDS011;42288;52.182;21.156;2024-02-26T10:40:42;15.87;;;8.73;;
16979;SDS011;42288;52.182;21.156;2024-02-26T10:43:07;14.47;;;8.83;;
16979;SDS011;42288;52.182;21.156;2024-02-26T10:45:33;16.03;;;8.53;;
16979;SDS011;42288;52.182;21.156;2024-02-26T10:48:00;13.40;;;8.67;;
16979;SDS011;42288;52.182;21.156;2024-02-26T10:50:25;13.33;;;8.60;;
16979;SDS011;42288;52.182;21.156;2024-02-26T10:52:51;14.90;;;8.80;;
16979;SDS011;42288;52.182;21.156;2024-02-26T10:55:17;13.20;;;8.20;;
16979;SDS011;42288;52.182;21.156;2024-02-26T10:57:44;12.50;;;7.90;;
16979;SDS011;42288;52.182;21.156;2024-02-26T11:00:10;10.67;;;7.87;;
16979;SDS011;42288;52.182;21.156;2024-02-26T11:02:40;13.53;;;7.30;;
16979;SDS011;42288;52.182;21.156;2024-02-26T11:05:06;14.63;;;7.50;;
16979;SDS011;42288;52.182;21.156;2024-02-26T11:07:34;11.50;;;7.67;;
16979;SDS011;42288;52.182;21.156;2024-02-26T11:10:02;10.17;;;6.90;;
16979;SDS011;42288;52.182;21.156;2024-02-26T11:12:29;9.93;;;6.70;;
16979;SDS011;42288;52.182;21.156;2024-02-26T11:14:56;15.00;;;7.30;;
16979;SDS011;42288;52.182;21.156;2024-02-26T11:17:26;9.33;;;6.80;;
16979;SDS011;42288;52.182;21.156;2024-02-26T11:19:56;11.17;;;6.10;;
16979;SDS011;42288;52.182;21.156;2024-02-26T11:22:26;8.73;;;6.20;;
16979;SDS011;42288;52.182;21.156;2024-02-26T11:24:52;10.77;;;6.03;;
16979;SDS011;42288;52.182;21.156;2024-02-26T11:27:19;10.23;;;5.90;;
16979;SDS011;42288;52.182;21.156;2024-02-26T11:29:55;11.90;;;6.30;;
16979;SDS011;42288;52.182;21.156;2024-02-26T11:32:24;13.97;;;6.00;;
16979;SDS011;42288;52.182;21.156;2024-02-26T11:34:52;10.63;;;6.90;;
16979;SDS011;42288;52.182;21.156;2024-02-26T11:37:19;9.00;;;5.83;;
16979;SDS011;42288;52.182;21.156;2024-02-26T11:39:45;10.23;;;6.67;;
16979;SDS011;42288;52.182;21.156;2024-02-26T11:42:13;7.37;;;5.90;;
16979;SDS011;42288;52.182;21.156;2024-02-26T11:44:40;12.13;;;6.10;;
16979;SDS011;42288;52.182;21.156;2024-02-26T11:47:10;9.60;;;5.93;;
16979;SDS011;42288;52.182;21.156;2024-02-26T11:49:37;10.40;;;6.10;;
16979;SDS011;42288;52.182;21.156;2024-02-26T11:52:05;7.73;;;4.57;;
16979;SDS011;42288;52.182;21.156;2024-02-26T11:57:28;7.87;;;4.23;;
16979;SDS011;42288;52.182;21.156;2024-02-26T12:05:11;9.70;;;5.07;;
16979;SDS011;42288;52.182;21.156;2024-02-26T12:07:42;8.20;;;4.40;;
16979;SDS011;42288;52.182;21.156;2024-02-26T12:12:55;4.67;;;3.30;;
16979;SDS011;42288;52.182;21.156;2024-02-26T12:15:30;6.53;;;3.47;;
16979;SDS011;42288;52.182;21.156;2024-02-26T12:17:57;4.50;;;3.33;;
16979;SDS011;42288;52.182;21.156;2024-02-26T12:20:25;5.57;;;3.13;;
16979;SDS011;42288;52.182;21.156;2024-02-26T12:22:50;7.80;;;2.97;;
16979;SDS011;42288;52.182;21.156;2024-02-26T12:25:21;4.30;;;3.07;;
16979;SDS011;42288;52.182;21.156;2024-02-26T12:27:52;5.43;;;3.07;;
16979;SDS011;42288;52.182;21.156;2024-02-26T12:30:18;3.53;;;2.63;;
16979;SDS011;42288;52.182;21.156;2024-02-26T12:32:44;3.70;;;3.00;;
16979;SDS011;42288;52.182;21.156;2024-02-26T12:35:11;6.40;;;3.60;;
16979;SDS011;42288;52.182;21.156;2024-02-26T12:37:37;5.00;;;2.80;;
16979;SDS011;42288;52.182;21.156;2024-02-26T12:40:08;5.53;;;2.63;;
16979;SDS011;42288;52.182;21.156;2024-02-26T12:42:38;5.07;;;2.90;;
16979;SDS011;42288;52.182;21.156;2024-02-26T12:45:07;2.63;;;2.27;;
16979;SDS011;42288;52.182;21.156;2024-02-26T12:47:40;2.80;;;2.03;;
16979;SDS011;42288;52.182;21.156;2024-02-26T12:50:14;3.93;;;2.57;;
16979;SDS011;42288;52.182;21.156;2024-02-26T12:52:44;4.53;;;2.77;;
16979;SDS011;42288;52.182;21.156;2024-02-26T12:55:14;4.13;;;2.60;;
16979;SDS011;42288;52.182;21.156;2024-02-26T12:57:42;3.30;;;2.50;;
16979;SDS011;42288;52.182;21.156;2024-02-26T13:00:11;3.73;;;2.70;;
16979;SDS011;42288;52.182;21.156;2024-02-26T13:02:39;4.93;;;2.70;;
16979;SDS011;42288;52.182;21.156;2024-02-26T13:05:09;3.77;;;2.53;;
16979;SDS011;42288;52.182;21.156;2024-02-26T13:07:40;5.07;;;2.30;;
16979;SDS011;42288;52.182;21.156;2024-02-26T13:10:07;3.07;;;2.20;;
16979;SDS011;42288;52.182;21.156;2024-02-26T13:12:33;3.77;;;2.40;;
16979;SDS011;42288;52.182;21.156;2024-02-26T13:15:02;4.73;;;2.10;;
16979;SDS011;42288;52.182;21.156;2024-02-26T13:17:32;2.67;;;2.30;;
16979;SDS011;42288;52.182;21.156;2024-02-26T13:19:58;4.03;;;2.53;;
16979;SDS011;42288;52.182;21.156;2024-02-26T13:22:23;4.10;;;2.73;;
16979;SDS011;42288;52.182;21.156;2024-02-26T13:24:58;3.40;;;2.40;;
16979;SDS011;42288;52.182;21.156;2024-02-26T13:27:24;5.17;;;2.30;;
16979;SDS011;42288;52.182;21.156;2024-02-26T13:32:36;5.03;;;2.70;;
16979;SDS011;42288;52.182;21.156;2024-02-26T13:35:06;3.47;;;2.50;;
16979;SDS011;42288;52.182;21.156;2024-02-26T13:37:34;4.23;;;2.50;;
16979;SDS011;42288;52.182;21.156;2024-02-26T13:40:10;5.53;;;2.60;;
16979;SDS011;42288;52.182;21.156;2024-02-26T13:42:36;3.37;;;2.40;;
16979;SDS011;42288;52.182;21.156;2024-02-26T13:45:03;4.97;;;2.47;;
16979;SDS011;42288;52.182;21.156;2024-02-26T13:47:33;4.20;;;2.23;;
16979;SDS011;42288;52.182;21.156;2024-02-26T13:49:59;3.60;;;2.30;;
16979;SDS011;42288;52.182;21.156;2024-02-26T13:52:26;2.90;;;2.30;;
16979;SDS011;42288;52.182;21.156;2024-02-26T13:54:51;7.70;;;2.60;;
16979;SDS011;42288;52.182;21.156;2024-02-26T13:57:17;3.67;;;2.50;;
16979;SDS011;42288;52.182;21.156;2024-02-26T13:59:44;4.33;;;2.60;;
16979;SDS011;42288;52.182;21.156;2024-02-26T14:02:10;4.13;;;2.17;;
16979;SDS011;42288;52.182;21.156;2024-02-26T14:04:36;6.33;;;2.03;;
16979;SDS011;42288;52.182;21.156;2024-02-26T14:07:02;3.60;;;2.40;;
16979;SDS011;42288;52.182;21.156;2024-02-26T14:09:29;4.40;;;2.10;;
16979;SDS011;42288;52.182;21.156;2024-02-26T14:11:55;2.93;;;2.20;;
16979;SDS011;42288;52.182;21.156;2024-02-26T14:14:20;5.87;;;2.40;;
16979;SDS011;42288;52.182;21.156;2024-02-26T14:16:46;3.00;;;2.27;;
16979;SDS011;42288;52.182;21.156;2024-02-26T14:19:12;3.60;;;2.40;;
16979;SDS011;42288;52.182;21.156;2024-02-26T14:21:37;4.50;;;2.50;;
16979;SDS011;42288;52.182;21.156;2024-02-26T14:24:03;5.27;;;3.07;;